Terminal Aerodrome Forecast
Issued by NWS Bismarck, ND

Home | Current Version | Previous Version | Graphics & Text | Print | Product List | Glossary On
Versions: 1 2 3 4 5 6 7 8 9 10 11 12
000
FTUS43 KBIS 191120
TAFBIS
TAF
KBIS 191120Z 1912/2012 01007KT P6SM SCT150 SCT250
     FM191500 03012G19KT P6SM FEW300
     FM192100 04011KT P6SM FEW300
     FM200200 06006KT P6SM FEW300=

USA.gov is the U.S. government's official web portal to all federal, state and local government web resources and services.